sensor_id;sensor_type;location;lat;lon;timestamp;P1;durP1;ratioP1;P2;durP2;ratioP2
29538;SDS011;16482;51.046;4.498;2022-08-03T00:01:37;5.85;;;4.05;;
29538;SDS011;16482;51.046;4.498;2022-08-03T00:04:05;7.15;;;3.90;;
29538;SDS011;16482;51.046;4.498;2022-08-03T00:06:32;6.38;;;4.10;;
29538;SDS011;16482;51.046;4.498;2022-08-03T00:08:58;5.75;;;3.70;;
29538;SDS011;16482;51.046;4.498;2022-08-03T00:11:26;5.97;;;3.85;;
29538;SDS011;16482;51.046;4.498;2022-08-03T00:14:00;5.35;;;3.70;;
29538;SDS011;16482;51.046;4.498;2022-08-03T00:16:26;5.68;;;3.70;;
29538;SDS011;16482;51.046;4.498;2022-08-03T00:18:59;5.80;;;3.92;;
29538;SDS011;16482;51.046;4.498;2022-08-03T00:21:25;4.43;;;3.42;;
29538;SDS011;16482;51.046;4.498;2022-08-03T00:23:59;5.85;;;3.55;;
29538;SDS011;16482;51.046;4.498;2022-08-03T00:26:28;5.10;;;3.45;;
29538;SDS011;16482;51.046;4.498;2022-08-03T00:28:56;3.92;;;3.33;;
29538;SDS011;16482;51.046;4.498;2022-08-03T00:31:31;6.28;;;3.75;;
29538;SDS011;16482;51.046;4.498;2022-08-03T00:33:57;7.22;;;3.53;;
29538;SDS011;16482;51.046;4.498;2022-08-03T00:36:32;3.95;;;3.13;;
29538;SDS011;16482;51.046;4.498;2022-08-03T00:38:58;4.22;;;3.20;;
29538;SDS011;16482;51.046;4.498;2022-08-03T00:41:31;3.40;;;2.97;;
29538;SDS011;16482;51.046;4.498;2022-08-03T00:43:57;5.22;;;3.50;;
29538;SDS011;16482;51.046;4.498;2022-08-03T00:46:25;5.00;;;3.35;;
29538;SDS011;16482;51.046;4.498;2022-08-03T00:48:59;4.53;;;3.00;;
29538;SDS011;16482;51.046;4.498;2022-08-03T00:51:27;3.97;;;3.13;;
29538;SDS011;16482;51.046;4.498;2022-08-03T00:54:00;6.80;;;3.15;;
29538;SDS011;16482;51.046;4.498;2022-08-03T00:56:26;4.55;;;3.05;;
29538;SDS011;16482;51.046;4.498;2022-08-03T00:58:55;5.22;;;3.15;;
29538;SDS011;16482;51.046;4.498;2022-08-03T01:01:25;5.60;;;3.33;;
29538;SDS011;16482;51.046;4.498;2022-08-03T01:03:57;4.53;;;2.85;;
29538;SDS011;16482;51.046;4.498;2022-08-03T01:06:34;5.78;;;3.05;;
29538;SDS011;16482;51.046;4.498;2022-08-03T01:12:00;5.00;;;3.00;;
29538;SDS011;16482;51.046;4.498;2022-08-03T01:19:58;4.22;;;2.78;;
29538;SDS011;16482;51.046;4.498;2022-08-03T01:30:49;2.78;;;2.40;;
29538;SDS011;16482;51.046;4.498;2022-08-03T01:33:19;5.88;;;2.90;;
29538;SDS011;16482;51.046;4.498;2022-08-03T01:35:58;7.57;;;2.90;;
29538;SDS011;16482;51.046;4.498;2022-08-03T01:38:28;3.17;;;2.60;;
29538;SDS011;16482;51.046;4.498;2022-08-03T01:40:59;4.88;;;2.72;;
29538;SDS011;16482;51.046;4.498;2022-08-03T01:43:30;3.95;;;2.97;;
29538;SDS011;16482;51.046;4.498;2022-08-03T01:45:56;4.35;;;2.50;;
29538;SDS011;16482;51.046;4.498;2022-08-03T01:48:23;4.70;;;2.90;;
29538;SDS011;16482;51.046;4.498;2022-08-03T01:50:51;3.50;;;2.85;;
29538;SDS011;16482;51.046;4.498;2022-08-03T01:53:19;5.50;;;3.00;;
29538;SDS011;16482;51.046;4.498;2022-08-03T01:55:47;4.18;;;2.67;;
29538;SDS011;16482;51.046;4.498;2022-08-03T01:58:17;4.68;;;2.47;;
29538;SDS011;16482;51.046;4.498;2022-08-03T02:00:46;5.05;;;2.90;;
29538;SDS011;16482;51.046;4.498;2022-08-03T02:03:14;3.70;;;2.35;;
29538;SDS011;16482;51.046;4.498;2022-08-03T02:05:42;4.35;;;2.42;;
29538;SDS011;16482;51.046;4.498;2022-08-03T02:08:11;5.22;;;2.63;;
29538;SDS011;16482;51.046;4.498;2022-08-03T02:10:40;5.35;;;2.72;;
29538;SDS011;16482;51.046;4.498;2022-08-03T02:13:07;4.57;;;2.40;;
29538;SDS011;16482;51.046;4.498;2022-08-03T02:15:38;6.35;;;3.00;;
29538;SDS011;16482;51.046;4.498;2022-08-03T02:18:08;3.83;;;2.50;;
29538;SDS011;16482;51.046;4.498;2022-08-03T02:20:37;4.20;;;2.53;;
29538;SDS011;16482;51.046;4.498;2022-08-03T02:23:05;5.82;;;2.53;;
29538;SDS011;16482;51.046;4.498;2022-08-03T02:25:44;5.05;;;2.55;;
29538;SDS011;16482;51.046;4.498;2022-08-03T02:28:16;3.55;;;2.50;;
29538;SDS011;16482;51.046;4.498;2022-08-03T02:30:45;4.72;;;2.33;;
29538;SDS011;16482;51.046;4.498;2022-08-03T02:33:19;6.22;;;2.95;;
29538;SDS011;16482;51.046;4.498;2022-08-03T02:35:50;8.50;;;2.50;;
29538;SDS011;16482;51.046;4.498;2022-08-03T02:38:18;5.63;;;2.85;;
29538;SDS011;16482;51.046;4.498;2022-08-03T02:40:47;5.28;;;2.78;;
29538;SDS011;16482;51.046;4.498;2022-08-03T02:43:16;4.05;;;2.15;;
29538;SDS011;16482;51.046;4.498;2022-08-03T02:45:45;6.60;;;2.88;;
29538;SDS011;16482;51.046;4.498;2022-08-03T02:48:18;5.03;;;2.75;;
29538;SDS011;16482;51.046;4.498;2022-08-03T02:50:47;3.90;;;2.20;;
29538;SDS011;16482;51.046;4.498;2022-08-03T02:53:17;4.68;;;2.30;;
29538;SDS011;16482;51.046;4.498;2022-08-03T02:55:44;3.58;;;2.40;;
29538;SDS011;16482;51.046;4.498;2022-08-03T02:58:12;4.20;;;2.30;;
29538;SDS011;16482;51.046;4.498;2022-08-03T03:00:41;5.93;;;2.55;;
29538;SDS011;16482;51.046;4.498;2022-08-03T03:03:09;4.78;;;2.13;;
29538;SDS011;16482;51.046;4.498;2022-08-03T03:05:36;6.03;;;2.45;;
29538;SDS011;16482;51.046;4.498;2022-08-03T03:08:12;5.30;;;2.40;;
29538;SDS011;16482;51.046;4.498;2022-08-03T03:10:40;4.63;;;2.70;;
29538;SDS011;16482;51.046;4.498;2022-08-03T03:13:07;5.03;;;2.40;;
29538;SDS011;16482;51.046;4.498;2022-08-03T03:15:37;4.32;;;1.95;;
29538;SDS011;16482;51.046;4.498;2022-08-03T03:18:06;5.50;;;2.25;;
29538;SDS011;16482;51.046;4.498;2022-08-03T03:20:37;5.15;;;2.10;;
29538;SDS011;16482;51.046;4.498;2022-08-03T03:23:07;3.58;;;2.10;;
29538;SDS011;16482;51.046;4.498;2022-08-03T03:25:36;4.97;;;2.38;;
29538;SDS011;16482;51.046;4.498;2022-08-03T03:28:03;3.35;;;2.00;;
29538;SDS011;16482;51.046;4.498;2022-08-03T03:30:30;4.65;;;2.65;;
29538;SDS011;16482;51.046;4.498;2022-08-03T03:33:03;4.97;;;2.00;;
29538;SDS011;16482;51.046;4.498;2022-08-03T03:35:29;5.88;;;2.20;;
29538;SDS011;16482;51.046;4.498;2022-08-03T03:38:01;4.47;;;2.50;;
29538;SDS011;16482;51.046;4.498;2022-08-03T03:40:37;4.22;;;2.22;;
29538;SDS011;16482;51.046;4.498;2022-08-03T03:43:07;4.90;;;2.50;;
29538;SDS011;16482;51.046;4.498;2022-08-03T03:45:34;4.82;;;2.60;;
29538;SDS011;16482;51.046;4.498;2022-08-03T03:48:09;4.07;;;2.20;;
29538;SDS011;16482;51.046;4.498;2022-08-03T03:50:36;6.93;;;2.50;;
29538;SDS011;16482;51.046;4.498;2022-08-03T03:53:08;3.90;;;2.40;;
29538;SDS011;16482;51.046;4.498;2022-08-03T03:55:38;4.43;;;2.25;;
29538;SDS011;16482;51.046;4.498;2022-08-03T03:58:07;3.92;;;2.25;;
29538;SDS011;16482;51.046;4.498;2022-08-03T04:00:36;4.18;;;2.17;;
29538;SDS011;16482;51.046;4.498;2022-08-03T04:03:08;6.35;;;2.05;;
29538;SDS011;16482;51.046;4.498;2022-08-03T04:05:35;4.20;;;2.40;;
29538;SDS011;16482;51.046;4.498;2022-08-03T04:08:20;4.20;;;2.20;;
29538;SDS011;16482;51.046;4.498;2022-08-03T04:11:40;6.00;;;2.63;;
29538;SDS011;16482;51.046;4.498;2022-08-03T04:14:13;4.93;;;2.20;;
29538;SDS011;16482;51.046;4.498;2022-08-03T04:16:41;3.10;;;2.17;;
29538;SDS011;16482;51.046;4.498;2022-08-03T04:19:13;4.60;;;2.22;;
29538;SDS011;16482;51.046;4.498;2022-08-03T04:21:42;5.72;;;2.45;;
29538;SDS011;16482;51.046;4.498;2022-08-03T04:24:12;4.68;;;2.00;;
29538;SDS011;16482;51.046;4.498;2022-08-03T04:26:40;4.63;;;2.10;;
29538;SDS011;16482;51.046;4.498;2022-08-03T04:29:07;3.85;;;2.13;;
29538;SDS011;16482;51.046;4.498;2022-08-03T04:31:36;5.05;;;2.30;;
29538;SDS011;16482;51.046;4.498;2022-08-03T04:34:04;3.90;;;2.42;;
29538;SDS011;16482;51.046;4.498;2022-08-03T04:36:30;5.85;;;2.10;;
29538;SDS011;16482;51.046;4.498;2022-08-03T04:38:59;5.13;;;2.30;;
29538;SDS011;16482;51.046;4.498;2022-08-03T04:41:28;4.97;;;2.38;;
29538;SDS011;16482;51.046;4.498;2022-08-03T04:43:58;4.65;;;2.35;;
29538;SDS011;16482;51.046;4.498;2022-08-03T04:46:28;5.15;;;2.30;;
29538;SDS011;16482;51.046;4.498;2022-08-03T04:48:58;3.88;;;2.10;;
29538;SDS011;16482;51.046;4.498;2022-08-03T04:51:28;4.43;;;2.10;;
29538;SDS011;16482;51.046;4.498;2022-08-03T04:54:02;3.33;;;1.90;;
29538;SDS011;16482;51.046;4.498;2022-08-03T04:56:28;5.72;;;2.15;;
29538;SDS011;16482;51.046;4.498;2022-08-03T04:58:57;5.63;;;2.55;;
29538;SDS011;16482;51.046;4.498;2022-08-03T05:01:30;3.25;;;2.30;;
29538;SDS011;16482;51.046;4.498;2022-08-03T05:03:56;5.18;;;1.70;;
29538;SDS011;16482;51.046;4.498;2022-08-03T05:06:30;4.72;;;2.53;;
29538;SDS011;16482;51.046;4.498;2022-08-03T05:08:56;3.72;;;2.33;;
29538;SDS011;16482;51.046;4.498;2022-08-03T05:11:31;4.05;;;2.20;;
29538;SDS011;16482;51.046;4.498;2022-08-03T05:13:56;6.57;;;2.50;;
29538;SDS011;16482;51.046;4.498;2022-08-03T05:16:30;6.20;;;2.30;;
29538;SDS011;16482;51.046;4.498;2022-08-03T05:18:58;11.73;;;2.25;;
29538;SDS011;16482;51.046;4.498;2022-08-03T05:21:27;8.55;;;2.47;;
29538;SDS011;16482;51.046;4.498;2022-08-03T05:23:56;8.15;;;2.50;;
29538;SDS011;16482;51.046;4.498;2022-08-03T05:26:24;9.75;;;1.77;;
29538;SDS011;16482;51.046;4.498;2022-08-03T05:28:52;10.95;;;2.20;;
29538;SDS011;16482;51.046;4.498;2022-08-03T05:31:18;8.95;;;2.30;;
29538;SDS011;16482;51.046;4.498;2022-08-03T05:33:44;7.15;;;2.00;;
29538;SDS011;16482;51.046;4.498;2022-08-03T05:36:12;9.95;;;2.47;;
29538;SDS011;16482;51.046;4.498;2022-08-03T05:38:38;8.55;;;2.17;;
29538;SDS011;16482;51.046;4.498;2022-08-03T05:41:04;9.35;;;2.00;;
29538;SDS011;16482;51.046;4.498;2022-08-03T05:43:30;12.18;;;2.25;;
29538;SDS011;16482;51.046;4.498;2022-08-03T05:45:56;13.55;;;2.10;;
29538;SDS011;16482;51.046;4.498;2022-08-03T05:48:23;10.05;;;1.90;;
29538;SDS011;16482;51.046;4.498;2022-08-03T05:50:49;8.20;;;2.38;;
29538;SDS011;16482;51.046;4.498;2022-08-03T05:53:15;10.15;;;2.40;;
29538;SDS011;16482;51.046;4.498;2022-08-03T05:55:41;5.88;;;2.20;;
29538;SDS011;16482;51.046;4.498;2022-08-03T05:58:07;7.45;;;1.95;;
29538;SDS011;16482;51.046;4.498;2022-08-03T06:00:32;9.95;;;2.75;;
29538;SDS011;16482;51.046;4.498;2022-08-03T06:02:58;10.95;;;2.13;;
29538;SDS011;16482;51.046;4.498;2022-08-03T06:05:24;7.93;;;2.45;;
29538;SDS011;16482;51.046;4.498;2022-08-03T06:07:52;9.45;;;1.95;;
29538;SDS011;16482;51.046;4.498;2022-08-03T06:10:18;10.52;;;2.10;;
29538;SDS011;16482;51.046;4.498;2022-08-03T06:12:44;13.40;;;2.67;;
29538;SDS011;16482;51.046;4.498;2022-08-03T06:15:13;8.73;;;2.30;;
29538;SDS011;16482;51.046;4.498;2022-08-03T06:17:46;10.00;;;2.17;;
29538;SDS011;16482;51.046;4.498;2022-08-03T06:20:14;9.25;;;2.30;;
29538;SDS011;16482;51.046;4.498;2022-08-03T06:22:44;8.18;;;2.47;;
29538;SDS011;16482;51.046;4.498;2022-08-03T06:25:13;9.07;;;2.08;;
29538;SDS011;16482;51.046;4.498;2022-08-03T06:27:40;9.27;;;2.38;;
29538;SDS011;16482;51.046;4.498;2022-08-03T06:30:06;11.60;;;2.15;;
29538;SDS011;16482;51.046;4.498;2022-08-03T06:32:34;13.43;;;2.90;;
29538;SDS011;16482;51.046;4.498;2022-08-03T06:35:06;16.88;;;3.42;;
29538;SDS011;16482;51.046;4.498;2022-08-03T06:37:43;17.27;;;2.70;;
29538;SDS011;16482;51.046;4.498;2022-08-03T06:40:16;6.35;;;2.35;;
29538;SDS011;16482;51.046;4.498;2022-08-03T06:42:44;9.27;;;2.40;;
29538;SDS011;16482;51.046;4.498;2022-08-03T06:45:10;6.05;;;2.10;;
29538;SDS011;16482;51.046;4.498;2022-08-03T06:47:36;10.25;;;1.88;;
29538;SDS011;16482;51.046;4.498;2022-08-03T06:50:06;14.77;;;2.70;;
29538;SDS011;16482;51.046;4.498;2022-08-03T06:52:34;8.18;;;2.47;;
29538;SDS011;16482;51.046;4.498;2022-08-03T06:55:00;18.33;;;2.83;;
29538;SDS011;16482;51.046;4.498;2022-08-03T06:57:26;10.85;;;2.63;;
29538;SDS011;16482;51.046;4.498;2022-08-03T06:59:51;12.05;;;2.63;;
29538;SDS011;16482;51.046;4.498;2022-08-03T07:02:17;11.88;;;2.60;;
29538;SDS011;16482;51.046;4.498;2022-08-03T07:04:51;9.43;;;2.28;;
29538;SDS011;16482;51.046;4.498;2022-08-03T07:07:17;8.32;;;2.03;;
29538;SDS011;16482;51.046;4.498;2022-08-03T07:09:47;9.98;;;2.10;;
29538;SDS011;16482;51.046;4.498;2022-08-03T07:12:22;10.32;;;2.50;;
29538;SDS011;16482;51.046;4.498;2022-08-03T07:14:48;5.63;;;1.67;;
29538;SDS011;16482;51.046;4.498;2022-08-03T07:17:14;9.23;;;2.42;;
29538;SDS011;16482;51.046;4.498;2022-08-03T07:19:40;8.32;;;2.10;;
29538;SDS011;16482;51.046;4.498;2022-08-03T07:22:08;5.72;;;1.75;;
29538;SDS011;16482;51.046;4.498;2022-08-03T07:24:35;8.40;;;1.88;;
29538;SDS011;16482;51.046;4.498;2022-08-03T07:27:01;9.70;;;2.03;;
29538;SDS011;16482;51.046;4.498;2022-08-03T07:29:27;8.27;;;2.08;;
29538;SDS011;16482;51.046;4.498;2022-08-03T07:31:53;11.48;;;2.13;;
29538;SDS011;16482;51.046;4.498;2022-08-03T07:34:19;10.10;;;2.47;;
29538;SDS011;16482;51.046;4.498;2022-08-03T07:36:45;7.97;;;1.95;;
29538;SDS011;16482;51.046;4.498;2022-08-03T07:39:11;12.50;;;2.13;;
29538;SDS011;16482;51.046;4.498;2022-08-03T07:41:37;13.02;;;1.90;;
29538;SDS011;16482;51.046;4.498;2022-08-03T07:44:03;10.38;;;2.53;;
29538;SDS011;16482;51.046;4.498;2022-08-03T07:46:29;11.85;;;1.80;;
29538;SDS011;16482;51.046;4.498;2022-08-03T07:49:04;5.32;;;1.88;;
29538;SDS011;16482;51.046;4.498;2022-08-03T07:51:30;10.55;;;2.30;;
29538;SDS011;16482;51.046;4.498;2022-08-03T07:53:58;6.78;;;2.15;;
29538;SDS011;16482;51.046;4.498;2022-08-03T07:56:24;7.20;;;1.80;;
29538;SDS011;16482;51.046;4.498;2022-08-03T07:58:59;8.57;;;2.30;;
29538;SDS011;16482;51.046;4.498;2022-08-03T08:01:27;10.05;;;2.03;;
29538;SDS011;16482;51.046;4.498;2022-08-03T08:04:00;9.88;;;2.33;;
29538;SDS011;16482;51.046;4.498;2022-08-03T08:06:29;9.98;;;2.15;;
29538;SDS011;16482;51.046;4.498;2022-08-03T08:08:59;11.60;;;2.28;;
29538;SDS011;16482;51.046;4.498;2022-08-03T08:11:28;9.45;;;2.20;;
29538;SDS011;16482;51.046;4.498;2022-08-03T08:13:57;10.30;;;2.03;;
29538;SDS011;16482;51.046;4.498;2022-08-03T08:16:26;10.20;;;2.28;;
29538;SDS011;16482;51.046;4.498;2022-08-03T08:18:52;18.80;;;2.40;;
29538;SDS011;16482;51.046;4.498;2022-08-03T08:21:18;9.43;;;2.45;;
29538;SDS011;16482;51.046;4.498;2022-08-03T08:23:44;17.80;;;2.55;;
29538;SDS011;16482;51.046;4.498;2022-08-03T08:26:10;10.82;;;2.47;;
29538;SDS011;16482;51.046;4.498;2022-08-03T08:28:36;12.65;;;2.92;;
29538;SDS011;16482;51.046;4.498;2022-08-03T08:31:02;14.43;;;2.83;;
29538;SDS011;16482;51.046;4.498;2022-08-03T08:33:28;12.95;;;2.42;;
29538;SDS011;16482;51.046;4.498;2022-08-03T08:35:54;7.78;;;2.35;;
29538;SDS011;16482;51.046;4.498;2022-08-03T08:38:20;12.02;;;2.72;;
29538;SDS011;16482;51.046;4.498;2022-08-03T08:40:47;13.48;;;2.70;;
29538;SDS011;16482;51.046;4.498;2022-08-03T08:43:14;20.40;;;3.33;;
29538;SDS011;16482;51.046;4.498;2022-08-03T08:45:40;13.68;;;2.88;;
29538;SDS011;16482;51.046;4.498;2022-08-03T08:48:06;11.65;;;2.72;;
29538;SDS011;16482;51.046;4.498;2022-08-03T08:50:37;18.27;;;3.15;;
29538;SDS011;16482;51.046;4.498;2022-08-03T08:53:06;13.85;;;3.08;;
29538;SDS011;16482;51.046;4.498;2022-08-03T08:55:39;9.48;;;2.70;;
29538;SDS011;16482;51.046;4.498;2022-08-03T08:58:15;13.63;;;3.00;;
29538;SDS011;16482;51.046;4.498;2022-08-03T09:00:43;13.50;;;3.30;;
29538;SDS011;16482;51.046;4.498;2022-08-03T09:03:10;22.40;;;3.92;;
29538;SDS011;16482;51.046;4.498;2022-08-03T09:05:38;14.98;;;3.13;;
29538;SDS011;16482;51.046;4.498;2022-08-03T09:08:07;12.18;;;3.63;;
29538;SDS011;16482;51.046;4.498;2022-08-03T09:10:40;16.13;;;3.67;;
29538;SDS011;16482;51.046;4.498;2022-08-03T09:13:09;12.75;;;3.17;;
29538;SDS011;16482;51.046;4.498;2022-08-03T09:15:37;16.98;;;3.05;;
29538;SDS011;16482;51.046;4.498;2022-08-03T09:18:11;14.70;;;3.20;;
29538;SDS011;16482;51.046;4.498;2022-08-03T09:20:38;18.48;;;3.53;;
29538;SDS011;16482;51.046;4.498;2022-08-03T09:25:39;12.45;;;3.35;;
29538;SDS011;16482;51.046;4.498;2022-08-03T09:28:10;12.43;;;3.45;;
29538;SDS011;16482;51.046;4.498;2022-08-03T09:30:45;13.23;;;3.00;;
29538;SDS011;16482;51.046;4.498;2022-08-03T09:33:23;9.63;;;2.70;;
29538;SDS011;16482;51.046;4.498;2022-08-03T09:35:49;10.30;;;3.45;;
29538;SDS011;16482;51.046;4.498;2022-08-03T09:38:16;10.60;;;2.90;;
29538;SDS011;16482;51.046;4.498;2022-08-03T09:40:53;9.95;;;3.08;;
29538;SDS011;16482;51.046;4.498;2022-08-03T09:43:20;8.88;;;2.78;;
29538;SDS011;16482;51.046;4.498;2022-08-03T09:45:47;8.02;;;3.08;;
29538;SDS011;16482;51.046;4.498;2022-08-03T09:48:24;8.55;;;2.60;;
29538;SDS011;16482;51.046;4.498;2022-08-03T09:50:55;12.15;;;3.13;;
29538;SDS011;16482;51.046;4.498;2022-08-03T09:53:23;9.38;;;2.97;;
29538;SDS011;16482;51.046;4.498;2022-08-03T09:58:20;13.35;;;2.53;;
29538;SDS011;16482;51.046;4.498;2022-08-03T10:00:54;7.40;;;2.40;;
29538;SDS011;16482;51.046;4.498;2022-08-03T10:03:20;11.48;;;2.67;;
29538;SDS011;16482;51.046;4.498;2022-08-03T10:05:46;13.20;;;2.63;;
29538;SDS011;16482;51.046;4.498;2022-08-03T10:08:16;9.40;;;2.80;;
29538;SDS011;16482;51.046;4.498;2022-08-03T10:10:43;11.20;;;2.47;;
29538;SDS011;16482;51.046;4.498;2022-08-03T10:13:15;7.60;;;2.25;;
29538;SDS011;16482;51.046;4.498;2022-08-03T10:15:42;8.77;;;2.85;;
29538;SDS011;16482;51.046;4.498;2022-08-03T10:18:08;7.22;;;2.58;;
29538;SDS011;16482;51.046;4.498;2022-08-03T10:20:53;6.07;;;2.58;;
29538;SDS011;16482;51.046;4.498;2022-08-03T10:23:25;10.68;;;2.70;;
29538;SDS011;16482;51.046;4.498;2022-08-03T10:25:53;7.85;;;2.38;;
29538;SDS011;16482;51.046;4.498;2022-08-03T10:28:25;8.63;;;2.40;;
29538;SDS011;16482;51.046;4.498;2022-08-03T10:30:56;8.73;;;2.40;;
29538;SDS011;16482;51.046;4.498;2022-08-03T10:33:26;8.77;;;2.78;;
29538;SDS011;16482;51.046;4.498;2022-08-03T10:35:55;8.25;;;2.63;;
29538;SDS011;16482;51.046;4.498;2022-08-03T10:38:28;9.45;;;2.63;;
29538;SDS011;16482;51.046;4.498;2022-08-03T10:40:56;6.28;;;2.20;;
29538;SDS011;16482;51.046;4.498;2022-08-03T10:43:26;7.10;;;2.55;;
29538;SDS011;16482;51.046;4.498;2022-08-03T10:45:57;6.32;;;2.40;;
29538;SDS011;16482;51.046;4.498;2022-08-03T10:48:24;6.15;;;2.55;;
29538;SDS011;16482;51.046;4.498;2022-08-03T10:50:51;7.25;;;2.33;;
29538;SDS011;16482;51.046;4.498;2022-08-03T10:53:32;7.20;;;2.50;;
29538;SDS011;16482;51.046;4.498;2022-08-03T10:56:00;8.18;;;2.60;;
29538;SDS011;16482;51.046;4.498;2022-08-03T10:58:48;7.25;;;2.70;;
29538;SDS011;16482;51.046;4.498;2022-08-03T11:01:19;6.75;;;2.72;;
29538;SDS011;16482;51.046;4.498;2022-08-03T11:04:18;7.15;;;2.72;;
29538;SDS011;16482;51.046;4.498;2022-08-03T11:06:45;7.30;;;3.00;;
29538;SDS011;16482;51.046;4.498;2022-08-03T11:09:13;5.15;;;2.75;;
29538;SDS011;16482;51.046;4.498;2022-08-03T11:11:41;8.45;;;2.85;;
29538;SDS011;16482;51.046;4.498;2022-08-03T11:14:12;7.18;;;3.05;;
29538;SDS011;16482;51.046;4.498;2022-08-03T11:19:10;5.05;;;2.70;;
29538;SDS011;16482;51.046;4.498;2022-08-03T11:35:14;4.93;;;2.42;;
29538;SDS011;16482;51.046;4.498;2022-08-03T11:48:27;8.35;;;3.10;;
29538;SDS011;16482;51.046;4.498;2022-08-03T11:51:00;4.88;;;2.72;;
29538;SDS011;16482;51.046;4.498;2022-08-03T11:53:27;5.22;;;2.92;;
29538;SDS011;16482;51.046;4.498;2022-08-03T11:55:56;3.70;;;2.65;;
29538;SDS011;16482;51.046;4.498;2022-08-03T11:58:23;5.65;;;2.80;;
29538;SDS011;16482;51.046;4.498;2022-08-03T12:00:50;6.28;;;2.90;;
29538;SDS011;16482;51.046;4.498;2022-08-03T12:03:19;6.38;;;2.85;;
29538;SDS011;16482;51.046;4.498;2022-08-03T12:05:46;4.75;;;2.47;;
29538;SDS011;16482;51.046;4.498;2022-08-03T12:08:29;6.45;;;3.03;;
29538;SDS011;16482;51.046;4.498;2022-08-03T12:10:57;7.90;;;3.17;;
29538;SDS011;16482;51.046;4.498;2022-08-03T12:13:25;4.97;;;2.85;;
29538;SDS011;16482;51.046;4.498;2022-08-03T12:15:59;5.82;;;2.50;;
29538;SDS011;16482;51.046;4.498;2022-08-03T12:18:26;5.13;;;2.75;;
29538;SDS011;16482;51.046;4.498;2022-08-03T12:20:52;10.02;;;2.95;;
29538;SDS011;16482;51.046;4.498;2022-08-03T12:23:29;4.38;;;2.75;;
29538;SDS011;16482;51.046;4.498;2022-08-03T12:26:00;3.65;;;2.50;;
29538;SDS011;16482;51.046;4.498;2022-08-03T12:28:29;3.75;;;2.58;;
29538;SDS011;16482;51.046;4.498;2022-08-03T12:30:55;5.85;;;2.60;;
29538;SDS011;16482;51.046;4.498;2022-08-03T12:33:30;7.27;;;3.17;;
29538;SDS011;16482;51.046;4.498;2022-08-03T12:36:01;4.07;;;2.70;;
29538;SDS011;16482;51.046;4.498;2022-08-03T12:38:31;4.47;;;3.03;;
29538;SDS011;16482;51.046;4.498;2022-08-03T12:41:00;3.97;;;2.47;;
29538;SDS011;16482;51.046;4.498;2022-08-03T12:43:28;4.43;;;2.53;;
29538;SDS011;16482;51.046;4.498;2022-08-03T12:46:10;9.57;;;3.00;;
29538;SDS011;16482;51.046;4.498;2022-08-03T12:49:00;4.15;;;2.38;;
29538;SDS011;16482;51.046;4.498;2022-08-03T12:51:25;5.45;;;2.55;;
29538;SDS011;16482;51.046;4.498;2022-08-03T12:53:56;4.68;;;2.40;;
29538;SDS011;16482;51.046;4.498;2022-08-03T12:56:30;2.92;;;2.33;;
29538;SDS011;16482;51.046;4.498;2022-08-03T12:58:59;3.28;;;2.50;;
29538;SDS011;16482;51.046;4.498;2022-08-03T13:01:27;5.07;;;2.78;;
29538;SDS011;16482;51.046;4.498;2022-08-03T13:04:00;3.85;;;2.47;;
29538;SDS011;16482;51.046;4.498;2022-08-03T13:06:26;2.92;;;2.38;;
29538;SDS011;16482;51.046;4.498;2022-08-03T13:09:10;2.33;;;2.13;;
29538;SDS011;16482;51.046;4.498;2022-08-03T13:11:36;5.05;;;2.65;;
29538;SDS011;16482;51.046;4.498;2022-08-03T13:14:02;3.33;;;2.50;;
29538;SDS011;16482;51.046;4.498;2022-08-03T13:16:28;3.17;;;2.35;;
29538;SDS011;16482;51.046;4.498;2022-08-03T13:19:02;3.63;;;2.05;;
29538;SDS011;16482;51.046;4.498;2022-08-03T13:21:28;4.38;;;2.50;;
29538;SDS011;16482;51.046;4.498;2022-08-03T13:23:54;3.58;;;2.50;;
29538;SDS011;16482;51.046;4.498;2022-08-03T13:26:20;2.88;;;2.38;;
29538;SDS011;16482;51.046;4.498;2022-08-03T13:28:45;3.63;;;2.50;;
29538;SDS011;16482;51.046;4.498;2022-08-03T13:31:11;5.43;;;2.28;;
29538;SDS011;16482;51.046;4.498;2022-08-03T13:33:37;5.03;;;2.47;;
29538;SDS011;16482;51.046;4.498;2022-08-03T13:36:04;6.45;;;2.30;;
29538;SDS011;16482;51.046;4.498;2022-08-03T13:38:30;4.28;;;2.20;;
29538;SDS011;16482;51.046;4.498;2022-08-03T13:40:56;4.10;;;2.55;;
29538;SDS011;16482;51.046;4.498;2022-08-03T13:43:24;3.25;;;2.20;;
29538;SDS011;16482;51.046;4.498;2022-08-03T13:45:50;4.93;;;2.53;;
29538;SDS011;16482;51.046;4.498;2022-08-03T13:48:16;2.75;;;2.10;;
29538;SDS011;16482;51.046;4.498;2022-08-03T13:50:42;4.22;;;2.60;;
29538;SDS011;16482;51.046;4.498;2022-08-03T13:53:10;2.88;;;2.50;;
29538;SDS011;16482;51.046;4.498;2022-08-03T13:55:44;3.08;;;2.22;;
29538;SDS011;16482;51.046;4.498;2022-08-03T13:58:10;2.80;;;2.03;;
29538;SDS011;16482;51.046;4.498;2022-08-03T14:00:39;3.78;;;2.25;;
29538;SDS011;16482;51.046;4.498;2022-08-03T14:03:14;2.40;;;2.20;;
29538;SDS011;16482;51.046;4.498;2022-08-03T14:05:40;3.00;;;2.40;;
29538;SDS011;16482;51.046;4.498;2022-08-03T14:08:10;4.18;;;2.60;;
29538;SDS011;16482;51.046;4.498;2022-08-03T14:10:41;4.53;;;2.70;;
29538;SDS011;16482;51.046;4.498;2022-08-03T14:13:09;3.20;;;2.45;;
29538;SDS011;16482;51.046;4.498;2022-08-03T14:15:35;3.30;;;2.40;;
29538;SDS011;16482;51.046;4.498;2022-08-03T14:18:10;4.30;;;2.40;;
29538;SDS011;16482;51.046;4.498;2022-08-03T14:20:39;3.40;;;2.05;;
29538;SDS011;16482;51.046;4.498;2022-08-03T14:23:07;2.92;;;2.20;;
29538;SDS011;16482;51.046;4.498;2022-08-03T14:25:40;2.42;;;2.22;;
29538;SDS011;16482;51.046;4.498;2022-08-03T14:28:07;4.05;;;2.65;;
29538;SDS011;16482;51.046;4.498;2022-08-03T14:30:35;2.88;;;2.17;;
29538;SDS011;16482;51.046;4.498;2022-08-03T14:33:01;2.80;;;2.50;;
29538;SDS011;16482;51.046;4.498;2022-08-03T14:35:44;2.60;;;2.03;;
29538;SDS011;16482;51.046;4.498;2022-08-03T14:43:11;3.83;;;2.20;;
29538;SDS011;16482;51.046;4.498;2022-08-03T14:45:39;3.10;;;2.50;;
29538;SDS011;16482;51.046;4.498;2022-08-03T14:48:08;5.20;;;2.28;;
29538;SDS011;16482;51.046;4.498;2022-08-03T14:50:46;6.80;;;2.25;;
29538;SDS011;16482;51.046;4.498;2022-08-03T14:53:11;5.90;;;2.50;;
29538;SDS011;16482;51.046;4.498;2022-08-03T14:55:37;3.00;;;2.22;;
29538;SDS011;16482;51.046;4.498;2022-08-03T14:58:03;4.90;;;2.40;;
29538;SDS011;16482;51.046;4.498;2022-08-03T15:00:31;3.88;;;2.17;;
29538;SDS011;16482;51.046;4.498;2022-08-03T15:03:01;3.78;;;2.10;;
29538;SDS011;16482;51.046;4.498;2022-08-03T15:05:29;3.45;;;2.03;;
29538;SDS011;16482;51.046;4.498;2022-08-03T15:07:55;3.40;;;2.20;;
29538;SDS011;16482;51.046;4.498;2022-08-03T15:10:21;3.33;;;2.00;;
29538;SDS011;16482;51.046;4.498;2022-08-03T15:12:47;3.22;;;2.20;;
29538;SDS011;16482;51.046;4.498;2022-08-03T15:15:13;2.92;;;2.30;;
29538;SDS011;16482;51.046;4.498;2022-08-03T15:17:39;6.25;;;2.20;;
29538;SDS011;16482;51.046;4.498;2022-08-03T15:20:05;3.25;;;2.10;;
29538;SDS011;16482;51.046;4.498;2022-08-03T15:22:33;4.45;;;2.15;;
29538;SDS011;16482;51.046;4.498;2022-08-03T15:24:59;4.00;;;2.28;;
29538;SDS011;16482;51.046;4.498;2022-08-03T15:27:26;2.95;;;2.00;;
29538;SDS011;16482;51.046;4.498;2022-08-03T15:29:52;2.45;;;2.25;;
29538;SDS011;16482;51.046;4.498;2022-08-03T15:32:20;2.35;;;2.08;;
29538;SDS011;16482;51.046;4.498;2022-08-03T15:34:49;2.88;;;2.10;;
29538;SDS011;16482;51.046;4.498;2022-08-03T15:37:19;2.33;;;2.13;;
29538;SDS011;16482;51.046;4.498;2022-08-03T15:39:49;4.68;;;2.30;;
29538;SDS011;16482;51.046;4.498;2022-08-03T15:42:20;3.55;;;1.95;;
29538;SDS011;16482;51.046;4.498;2022-08-03T15:44:55;4.05;;;1.90;;
29538;SDS011;16482;51.046;4.498;2022-08-03T15:47:21;2.97;;;2.10;;
29538;SDS011;16482;51.046;4.498;2022-08-03T15:49:50;2.33;;;2.10;;
29538;SDS011;16482;51.046;4.498;2022-08-03T15:52:23;3.35;;;2.35;;